sensor_id;sensor_type;location;lat;lon;timestamp;pressure;altitude;pressure_sealevel;temperature;humidity
6425;BME280;12193;42.642;23.384;2023-02-11T00:01:54;96063.41;;;-2.15;76.95
6425;BME280;12193;42.642;23.384;2023-02-11T00:04:23;96057.25;;;-2.40;78.35
6425;BME280;12193;42.642;23.384;2023-02-11T00:06:52;96057.28;;;-2.26;77.68
6425;BME280;12193;42.642;23.384;2023-02-11T00:09:22;96054.47;;;-2.22;77.62
6425;BME280;12193;42.642;23.384;2023-02-11T00:11:54;96053.44;;;-2.33;77.21
6425;BME280;12193;42.642;23.384;2023-02-11T00:14:23;96056.47;;;-2.56;78.07
6425;BME280;12193;42.642;23.384;2023-02-11T00:16:52;96050.50;;;-2.86;78.90
6425;BME280;12193;42.642;23.384;2023-02-11T00:19:21;96053.63;;;-2.97;79.73
6425;BME280;12193;42.642;23.384;2023-02-11T00:21:51;96050.91;;;-3.09;80.83
6425;BME280;12193;42.642;23.384;2023-02-11T00:24:20;96056.63;;;-2.75;79.58
6425;BME280;12193;42.642;23.384;2023-02-11T00:26:49;96051.56;;;-2.75;79.32
6425;BME280;12193;42.642;23.384;2023-02-11T00:29:21;96048.59;;;-2.83;78.13
6425;BME280;12193;42.642;23.384;2023-02-11T00:31:51;96051.50;;;-2.89;79.02
6425;BME280;12193;42.642;23.384;2023-02-11T00:34:20;96046.81;;;-2.96;79.54
6425;BME280;12193;42.642;23.384;2023-02-11T00:36:49;96041.53;;;-2.93;79.52
6425;BME280;12193;42.642;23.384;2023-02-11T00:39:20;96055.69;;;-2.88;79.28
6425;BME280;12193;42.642;23.384;2023-02-11T00:41:49;96048.03;;;-3.03;79.56
6425;BME280;12193;42.642;23.384;2023-02-11T00:44:21;96049.59;;;-3.16;80.09
6425;BME280;12193;42.642;23.384;2023-02-11T00:46:51;96047.94;;;-3.02;80.38
6425;BME280;12193;42.642;23.384;2023-02-11T00:49:20;96042.78;;;-3.00;79.79
6425;BME280;12193;42.642;23.384;2023-02-11T00:51:50;96043.19;;;-2.92;79.74
6425;BME280;12193;42.642;23.384;2023-02-11T00:54:19;96046.47;;;-2.90;78.92
6425;BME280;12193;42.642;23.384;2023-02-11T00:56:49;96042.13;;;-3.04;79.57
6425;BME280;12193;42.642;23.384;2023-02-11T00:59:18;96037.22;;;-3.22;79.67
6425;BME280;12193;42.642;23.384;2023-02-11T01:01:50;96037.44;;;-3.42;81.12
6425;BME280;12193;42.642;23.384;2023-02-11T01:04:19;96036.59;;;-3.58;81.73
6425;BME280;12193;42.642;23.384;2023-02-11T04:08:23;96007.88;;;-4.75;81.29
6425;BME280;12193;42.642;23.384;2023-02-11T04:10:53;96014.91;;;-4.80;81.30
6425;BME280;12193;42.642;23.384;2023-02-11T04:13:24;96011.63;;;-4.82;81.00
6425;BME280;12193;42.642;23.384;2023-02-11T04:15:53;96013.69;;;-4.90;81.39
6425;BME280;12193;42.642;23.384;2023-02-11T04:18:23;96024.06;;;-4.95;81.38
6425;BME280;12193;42.642;23.384;2023-02-11T04:20:52;96013.84;;;-4.93;82.13
6425;BME280;12193;42.642;23.384;2023-02-11T04:23:24;96013.97;;;-4.96;82.24
6425;BME280;12193;42.642;23.384;2023-02-11T04:25:53;96015.22;;;-5.05;83.09
6425;BME280;12193;42.642;23.384;2023-02-11T04:28:23;96013.97;;;-5.31;83.44
6425;BME280;12193;42.642;23.384;2023-02-11T04:30:54;96010.06;;;-5.20;84.77
6425;BME280;12193;42.642;23.384;2023-02-11T04:33:24;96007.53;;;-5.20;85.30
6425;BME280;12193;42.642;23.384;2023-02-11T04:35:53;96012.38;;;-5.15;85.82
6425;BME280;12193;42.642;23.384;2023-02-11T04:38:25;96015.81;;;-5.16;85.33
6425;BME280;12193;42.642;23.384;2023-02-11T04:40:54;96010.41;;;-5.27;85.95
6425;BME280;12193;42.642;23.384;2023-02-11T04:43:26;95999.72;;;-5.15;84.64
6425;BME280;12193;42.642;23.384;2023-02-11T04:45:56;96000.59;;;-5.16;83.39
6425;BME280;12193;42.642;23.384;2023-02-11T04:48:26;96005.75;;;-5.55;83.60
6425;BME280;12193;42.642;23.384;2023-02-11T04:50:55;96010.47;;;-5.83;85.35
6425;BME280;12193;42.642;23.384;2023-02-11T04:53:27;96006.06;;;-5.79;85.74
6425;BME280;12193;42.642;23.384;2023-02-11T04:55:56;96015.81;;;-5.72;85.52
6425;BME280;12193;42.642;23.384;2023-02-11T04:58:26;96010.50;;;-5.84;84.12
6425;BME280;12193;42.642;23.384;2023-02-11T05:00:59;96004.47;;;-6.00;84.63
6425;BME280;12193;42.642;23.384;2023-02-11T05:03:32;96006.53;;;-5.71;85.15
6425;BME280;12193;42.642;23.384;2023-02-11T05:06:02;95999.75;;;-5.52;85.00
6425;BME280;12193;42.642;23.384;2023-02-11T05:08:34;96000.28;;;-5.46;85.05
6425;BME280;12193;42.642;23.384;2023-02-11T05:11:05;95994.59;;;-5.51;85.54
6425;BME280;12193;42.642;23.384;2023-02-11T05:13:34;95992.47;;;-5.23;85.04
6425;BME280;12193;42.642;23.384;2023-02-11T05:16:04;96005.38;;;-5.46;84.28
6425;BME280;12193;42.642;23.384;2023-02-11T05:18:36;96000.84;;;-5.95;83.27
6425;BME280;12193;42.642;23.384;2023-02-11T05:21:06;95997.72;;;-5.81;83.65
6425;BME280;12193;42.642;23.384;2023-02-11T05:23:38;95994.56;;;-5.68;83.01
6425;BME280;12193;42.642;23.384;2023-02-11T05:26:09;95993.44;;;-5.62;83.39
6425;BME280;12193;42.642;23.384;2023-02-11T05:28:39;95990.91;;;-5.44;83.38
6425;BME280;12193;42.642;23.384;2023-02-11T05:31:09;95998.53;;;-5.44;81.88
6425;BME280;12193;42.642;23.384;2023-02-11T05:33:39;95998.31;;;-5.76;82.96
6425;BME280;12193;42.642;23.384;2023-02-11T05:36:11;95999.06;;;-5.74;83.28
6425;BME280;12193;42.642;23.384;2023-02-11T05:38:44;95998.72;;;-5.67;83.91
6425;BME280;12193;42.642;23.384;2023-02-11T05:41:13;95994.94;;;-5.40;83.96
6425;BME280;12193;42.642;23.384;2023-02-11T05:43:43;95991.41;;;-5.19;82.78
6425;BME280;12193;42.642;23.384;2023-02-11T05:46:12;95990.38;;;-5.15;82.64
6425;BME280;12193;42.642;23.384;2023-02-11T05:48:41;95988.03;;;-5.01;82.98
6425;BME280;12193;42.642;23.384;2023-02-11T05:51:11;95989.75;;;-4.85;82.47
6425;BME280;12193;42.642;23.384;2023-02-11T05:53:40;95989.44;;;-4.60;80.31
6425;BME280;12193;42.642;23.384;2023-02-11T05:56:12;95995.53;;;-4.64;79.77
6425;BME280;12193;42.642;23.384;2023-02-11T05:58:42;95999.47;;;-4.76;79.95
6425;BME280;12193;42.642;23.384;2023-02-11T06:01:11;96000.38;;;-4.43;78.59
6425;BME280;12193;42.642;23.384;2023-02-11T06:03:40;96003.28;;;-4.33;77.15
6425;BME280;12193;42.642;23.384;2023-02-11T06:06:10;96008.28;;;-4.32;77.33
6425;BME280;12193;42.642;23.384;2023-02-11T06:08:39;96001.44;;;-4.30;76.78
6425;BME280;12193;42.642;23.384;2023-02-11T06:11:12;96009.00;;;-4.13;76.24
6425;BME280;12193;42.642;23.384;2023-02-11T06:13:42;96013.00;;;-3.92;75.57
6425;BME280;12193;42.642;23.384;2023-02-11T06:16:12;96007.03;;;-3.76;75.51
6425;BME280;12193;42.642;23.384;2023-02-11T06:18:41;96013.75;;;-3.58;74.78
6425;BME280;12193;42.642;23.384;2023-02-11T06:21:11;96009.16;;;-3.36;73.46
6425;BME280;12193;42.642;23.384;2023-02-11T06:23:40;96010.47;;;-2.53;69.83
6425;BME280;12193;42.642;23.384;2023-02-11T06:26:16;96010.72;;;-1.57;66.13
6425;BME280;12193;42.642;23.384;2023-02-11T06:28:45;96010.97;;;-0.67;61.98
6425;BME280;12193;42.642;23.384;2023-02-11T06:31:15;96009.56;;;-0.20;60.51
6425;BME280;12193;42.642;23.384;2023-02-11T06:33:45;96010.13;;;0.22;58.67
6425;BME280;12193;42.642;23.384;2023-02-11T06:36:16;96017.56;;;0.63;56.02
6425;BME280;12193;42.642;23.384;2023-02-11T06:38:46;96004.94;;;0.85;53.69
6425;BME280;12193;42.642;23.384;2023-02-11T06:41:19;95998.50;;;0.79;53.38
6425;BME280;12193;42.642;23.384;2023-02-11T06:43:49;96008.69;;;1.04;52.98
6425;BME280;12193;42.642;23.384;2023-02-11T06:46:20;96009.88;;;1.47;51.79
6425;BME280;12193;42.642;23.384;2023-02-11T06:48:49;96009.84;;;0.88;52.95
6425;BME280;12193;42.642;23.384;2023-02-11T06:51:19;96015.84;;;-0.11;55.92
6425;BME280;12193;42.642;23.384;2023-02-11T06:53:48;96015.19;;;-0.15;56.65
6425;BME280;12193;42.642;23.384;2023-02-11T06:56:21;96001.66;;;-0.54;59.77
6425;BME280;12193;42.642;23.384;2023-02-11T06:58:53;96015.56;;;0.18;58.23
6425;BME280;12193;42.642;23.384;2023-02-11T07:01:23;96022.00;;;0.61;56.30
6425;BME280;12193;42.642;23.384;2023-02-11T07:03:53;96012.22;;;1.14;55.34
6425;BME280;12193;42.642;23.384;2023-02-11T07:06:24;96013.66;;;1.65;54.53
6425;BME280;12193;42.642;23.384;2023-02-11T07:08:55;96015.25;;;1.78;54.33
6425;BME280;12193;42.642;23.384;2023-02-11T07:11:28;96012.69;;;2.23;52.50
6425;BME280;12193;42.642;23.384;2023-02-11T07:14:00;96015.47;;;2.20;52.83
6425;BME280;12193;42.642;23.384;2023-02-11T07:16:31;96014.69;;;2.53;52.09
6425;BME280;12193;42.642;23.384;2023-02-11T07:19:01;96014.69;;;2.42;52.40
6425;BME280;12193;42.642;23.384;2023-02-11T07:21:30;96003.50;;;2.76;52.45
6425;BME280;12193;42.642;23.384;2023-02-11T07:24:00;95999.75;;;2.91;52.76
6425;BME280;12193;42.642;23.384;2023-02-11T07:26:33;95995.25;;;2.72;51.71
6425;BME280;12193;42.642;23.384;2023-02-11T07:29:02;95988.69;;;2.68;51.83
6425;BME280;12193;42.642;23.384;2023-02-11T07:31:32;95985.03;;;3.14;51.01
6425;BME280;12193;42.642;23.384;2023-02-11T07:34:02;95987.75;;;3.44;49.52
6425;BME280;12193;42.642;23.384;2023-02-11T07:36:31;95989.81;;;3.61;49.26
6425;BME280;12193;42.642;23.384;2023-02-11T07:39:00;95982.56;;;3.87;48.33
6425;BME280;12193;42.642;23.384;2023-02-11T07:41:32;95984.13;;;3.99;48.57
6425;BME280;12193;42.642;23.384;2023-02-11T07:44:02;95982.00;;;3.83;48.47
6425;BME280;12193;42.642;23.384;2023-02-11T07:46:32;95975.88;;;3.64;49.68
6425;BME280;12193;42.642;23.384;2023-02-11T07:49:02;95980.06;;;3.96;48.33
6425;BME280;12193;42.642;23.384;2023-02-11T07:51:31;95976.59;;;4.07;48.73
6425;BME280;12193;42.642;23.384;2023-02-11T07:54:01;95971.75;;;3.72;49.32
6425;BME280;12193;42.642;23.384;2023-02-11T07:56:33;95972.31;;;4.37;48.13
6425;BME280;12193;42.642;23.384;2023-02-11T07:59:02;95962.75;;;4.48;46.78
6425;BME280;12193;42.642;23.384;2023-02-11T08:01:32;95962.13;;;4.86;45.82
6425;BME280;12193;42.642;23.384;2023-02-11T08:04:02;95958.22;;;5.01;44.89
6425;BME280;12193;42.642;23.384;2023-02-11T08:06:33;95962.38;;;5.50;43.80
6425;BME280;12193;42.642;23.384;2023-02-11T08:09:04;95960.59;;;5.32;44.30
6425;BME280;12193;42.642;23.384;2023-02-11T08:11:36;95966.03;;;5.48;43.33
6425;BME280;12193;42.642;23.384;2023-02-11T08:14:06;95962.66;;;5.38;43.63
6425;BME280;12193;42.642;23.384;2023-02-11T08:16:36;95958.19;;;5.59;42.46
6425;BME280;12193;42.642;23.384;2023-02-11T08:19:09;95956.69;;;5.56;42.47
6425;BME280;12193;42.642;23.384;2023-02-11T08:21:39;95947.31;;;5.74;42.40
6425;BME280;12193;42.642;23.384;2023-02-11T08:24:08;95949.50;;;5.69;42.91
6425;BME280;12193;42.642;23.384;2023-02-11T08:26:41;95950.47;;;5.87;42.14
6425;BME280;12193;42.642;23.384;2023-02-11T08:29:12;95964.69;;;5.53;42.42
6425;BME280;12193;42.642;23.384;2023-02-11T08:31:44;95960.38;;;5.82;41.86
6425;BME280;12193;42.642;23.384;2023-02-11T08:34:14;95956.84;;;6.12;41.78
6425;BME280;12193;42.642;23.384;2023-02-11T08:36:45;95955.88;;;6.13;41.29
6425;BME280;12193;42.642;23.384;2023-02-11T08:39:16;95958.19;;;6.16;41.06
6425;BME280;12193;42.642;23.384;2023-02-11T08:41:50;95955.75;;;5.95;42.08
6425;BME280;12193;42.642;23.384;2023-02-11T08:44:22;95954.78;;;6.15;40.87
6425;BME280;12193;42.642;23.384;2023-02-11T08:46:52;95948.50;;;6.36;40.93
6425;BME280;12193;42.642;23.384;2023-02-11T08:49:22;95957.50;;;6.14;42.56
6425;BME280;12193;42.642;23.384;2023-02-11T08:51:52;95955.38;;;6.00;42.59
6425;BME280;12193;42.642;23.384;2023-02-11T08:54:24;95956.56;;;5.39;42.66
6425;BME280;12193;42.642;23.384;2023-02-11T08:56:56;95958.16;;;4.82;44.78
6425;BME280;12193;42.642;23.384;2023-02-11T08:59:27;95949.97;;;5.07;45.24
6425;BME280;12193;42.642;23.384;2023-02-11T09:01:56;95957.53;;;5.95;41.88
6425;BME280;12193;42.642;23.384;2023-02-11T09:04:26;95956.84;;;5.74;43.11
6425;BME280;12193;42.642;23.384;2023-02-11T09:06:55;95954.13;;;5.94;41.91
6425;BME280;12193;42.642;23.384;2023-02-11T09:09:25;95951.94;;;5.42;42.53
6425;BME280;12193;42.642;23.384;2023-02-11T09:11:57;95951.78;;;5.34;42.62
6425;BME280;12193;42.642;23.384;2023-02-11T09:14:26;95962.16;;;6.01;42.31
6425;BME280;12193;42.642;23.384;2023-02-11T09:16:55;95944.31;;;6.26;42.59
6425;BME280;12193;42.642;23.384;2023-02-11T09:19:25;95939.09;;;6.81;41.28
6425;BME280;12193;42.642;23.384;2023-02-11T09:21:54;95937.59;;;7.06;40.10
6425;BME280;12193;42.642;23.384;2023-02-11T09:24:24;95938.34;;;7.16;40.01
6425;BME280;12193;42.642;23.384;2023-02-11T09:26:56;95926.25;;;6.89;40.50
6425;BME280;12193;42.642;23.384;2023-02-11T09:29:25;95929.84;;;6.52;41.70
6425;BME280;12193;42.642;23.384;2023-02-11T09:31:55;95933.38;;;6.78;40.44
6425;BME280;12193;42.642;23.384;2023-02-11T09:34:24;95927.00;;;7.26;39.52
6425;BME280;12193;42.642;23.384;2023-02-11T09:36:53;95925.69;;;7.22;40.66
6425;BME280;12193;42.642;23.384;2023-02-11T09:39:22;95923.69;;;6.89;42.19
6425;BME280;12193;42.642;23.384;2023-02-11T09:42:19;95918.44;;;6.99;40.54
6425;BME280;12193;42.642;23.384;2023-02-11T09:44:53;95910.03;;;6.97;39.90
6425;BME280;12193;42.642;23.384;2023-02-11T09:47:25;95909.16;;;6.79;40.68
6425;BME280;12193;42.642;23.384;2023-02-11T09:49:59;95902.28;;;6.33;42.09
6425;BME280;12193;42.642;23.384;2023-02-11T09:52:34;95902.66;;;7.02;40.10
6425;BME280;12193;42.642;23.384;2023-02-11T09:55:16;95905.69;;;7.59;38.97
6425;BME280;12193;42.642;23.384;2023-02-11T09:57:49;95892.06;;;7.74;38.38
6425;BME280;12193;42.642;23.384;2023-02-11T10:00:21;95885.94;;;7.40;37.75
6425;BME280;12193;42.642;23.384;2023-02-11T10:03:12;95880.38;;;6.47;39.54
6425;BME280;12193;42.642;23.384;2023-02-11T10:05:54;95872.72;;;6.18;40.37
6425;BME280;12193;42.642;23.384;2023-02-11T10:08:32;95865.75;;;6.28;40.11
6425;BME280;12193;42.642;23.384;2023-02-11T10:11:08;95861.19;;;6.94;40.07
6425;BME280;12193;42.642;23.384;2023-02-11T10:13:49;95859.72;;;7.78;38.63
6425;BME280;12193;42.642;23.384;2023-02-11T10:16:42;95853.59;;;7.79;38.54
6425;BME280;12193;42.642;23.384;2023-02-11T10:19:28;95846.75;;;7.96;36.82
6425;BME280;12193;42.642;23.384;2023-02-11T10:22:04;95839.19;;;7.59;37.63
6425;BME280;12193;42.642;23.384;2023-02-11T10:24:35;95835.13;;;7.74;38.70
6425;BME280;12193;42.642;23.384;2023-02-11T10:27:13;95822.06;;;7.06;38.32
6425;BME280;12193;42.642;23.384;2023-02-11T10:29:50;95824.00;;;7.39;37.87
6425;BME280;12193;42.642;23.384;2023-02-11T10:32:28;95816.56;;;7.79;38.31
6425;BME280;12193;42.642;23.384;2023-02-11T10:35:02;95808.50;;;7.21;37.62
6425;BME280;12193;42.642;23.384;2023-02-11T10:37:36;95793.94;;;7.20;37.77
6425;BME280;12193;42.642;23.384;2023-02-11T10:40:12;95788.38;;;7.76;36.83
6425;BME280;12193;42.642;23.384;2023-02-11T10:42:45;95783.41;;;7.82;36.18
6425;BME280;12193;42.642;23.384;2023-02-11T10:45:24;95771.94;;;8.10;35.12
6425;BME280;12193;42.642;23.384;2023-02-11T10:47:55;95775.25;;;7.26;35.61
6425;BME280;12193;42.642;23.384;2023-02-11T10:50:26;95764.69;;;6.85;37.21
6425;BME280;12193;42.642;23.384;2023-02-11T10:53:14;95759.81;;;7.60;35.98
6425;BME280;12193;42.642;23.384;2023-02-11T10:55:50;95747.88;;;7.92;34.57
6425;BME280;12193;42.642;23.384;2023-02-11T10:58:25;95750.16;;;8.21;34.40
6425;BME280;12193;42.642;23.384;2023-02-11T11:00:58;95746.63;;;7.71;33.75
6425;BME280;12193;42.642;23.384;2023-02-11T11:03:32;95741.34;;;7.29;34.60
6425;BME280;12193;42.642;23.384;2023-02-11T11:06:05;95745.72;;;6.94;35.11
6425;BME280;12193;42.642;23.384;2023-02-11T11:08:40;95746.91;;;7.00;35.85
6425;BME280;12193;42.642;23.384;2023-02-11T11:11:12;95737.59;;;6.10;36.89
6425;BME280;12193;42.642;23.384;2023-02-11T11:13:54;95738.63;;;6.44;37.35
6425;BME280;12193;42.642;23.384;2023-02-11T11:16:28;95736.69;;;6.63;36.95
6425;BME280;12193;42.642;23.384;2023-02-11T11:19:19;95735.38;;;6.94;37.65
6425;BME280;12193;42.642;23.384;2023-02-11T11:21:50;95722.16;;;6.45;37.03
6425;BME280;12193;42.642;23.384;2023-02-11T11:24:22;95727.25;;;6.54;36.88
6425;BME280;12193;42.642;23.384;2023-02-11T11:26:58;95727.63;;;6.77;37.54
6425;BME280;12193;42.642;23.384;2023-02-11T11:29:32;95720.19;;;7.34;36.83
6425;BME280;12193;42.642;23.384;2023-02-11T11:32:11;95723.53;;;7.77;34.88
6425;BME280;12193;42.642;23.384;2023-02-11T11:34:42;95718.53;;;7.50;35.98
6425;BME280;12193;42.642;23.384;2023-02-11T11:37:20;95718.88;;;7.81;35.07
6425;BME280;12193;42.642;23.384;2023-02-11T11:39:55;95715.09;;;7.42;35.45
6425;BME280;12193;42.642;23.384;2023-02-11T11:42:28;95710.47;;;7.87;35.72
6425;BME280;12193;42.642;23.384;2023-02-11T11:44:58;95712.81;;;8.06;35.98
6425;BME280;12193;42.642;23.384;2023-02-11T11:47:34;95707.91;;;6.93;36.37
6425;BME280;12193;42.642;23.384;2023-02-11T11:50:18;95715.03;;;7.93;34.83
6425;BME280;12193;42.642;23.384;2023-02-11T11:52:55;95707.88;;;7.53;35.58
6425;BME280;12193;42.642;23.384;2023-02-11T11:55:34;95697.47;;;7.20;36.18
6425;BME280;12193;42.642;23.384;2023-02-11T11:58:10;95696.41;;;6.88;37.12
6425;BME280;12193;42.642;23.384;2023-02-11T12:00:51;95692.41;;;6.93;37.49
6425;BME280;12193;42.642;23.384;2023-02-11T12:06:40;95680.47;;;7.68;35.80
6425;BME280;12193;42.642;23.384;2023-02-11T12:09:19;95674.50;;;8.09;35.15
6425;BME280;12193;42.642;23.384;2023-02-11T12:12:00;95674.00;;;8.63;35.17
6425;BME280;12193;42.642;23.384;2023-02-11T12:14:42;95671.41;;;8.63;33.94
6425;BME280;12193;42.642;23.384;2023-02-11T12:17:25;95660.94;;;8.15;34.38
6425;BME280;12193;42.642;23.384;2023-02-11T12:20:18;95664.53;;;8.38;34.89
6425;BME280;12193;42.642;23.384;2023-02-11T12:23:06;95660.38;;;8.53;34.43
6425;BME280;12193;42.642;23.384;2023-02-11T12:25:46;95656.84;;;8.70;34.11
6425;BME280;12193;42.642;23.384;2023-02-11T12:28:27;95652.34;;;7.15;36.01
6425;BME280;12193;42.642;23.384;2023-02-11T12:31:12;95648.19;;;6.79;37.02
6425;BME280;12193;42.642;23.384;2023-02-11T12:34:03;95635.81;;;7.08;37.36
6425;BME280;12193;42.642;23.384;2023-02-11T12:36:51;95626.94;;;6.67;37.49
6425;BME280;12193;42.642;23.384;2023-02-11T12:39:33;95636.44;;;6.41;38.18
6425;BME280;12193;42.642;23.384;2023-02-11T12:42:20;95613.31;;;6.40;39.04
6425;BME280;12193;42.642;23.384;2023-02-11T12:45:17;95620.72;;;6.18;38.06
6425;BME280;12193;42.642;23.384;2023-02-11T12:47:59;95620.97;;;5.97;38.72
6425;BME280;12193;42.642;23.384;2023-02-11T12:50:41;95623.75;;;5.59;39.29
6425;BME280;12193;42.642;23.384;2023-02-11T12:53:28;95619.50;;;5.68;39.82
6425;BME280;12193;42.642;23.384;2023-02-11T12:56:05;95616.34;;;6.01;38.55
6425;BME280;12193;42.642;23.384;2023-02-11T12:58:39;95608.22;;;6.13;37.09
6425;BME280;12193;42.642;23.384;2023-02-11T13:01:15;95608.56;;;6.10;38.66
6425;BME280;12193;42.642;23.384;2023-02-11T13:03:50;95611.06;;;6.19;37.02
6425;BME280;12193;42.642;23.384;2023-02-11T13:06:27;95604.94;;;6.20;37.01
6425;BME280;12193;42.642;23.384;2023-02-11T13:09:04;95602.47;;;6.02;37.43
6425;BME280;12193;42.642;23.384;2023-02-11T13:11:37;95605.28;;;5.91;37.19
6425;BME280;12193;42.642;23.384;2023-02-11T13:14:13;95596.22;;;6.04;37.17
6425;BME280;12193;42.642;23.384;2023-02-11T13:16:44;95595.41;;;6.04;37.92
6425;BME280;12193;42.642;23.384;2023-02-11T13:19:19;95595.75;;;5.91;38.01
6425;BME280;12193;42.642;23.384;2023-02-11T13:22:05;95593.16;;;5.91;37.33
6425;BME280;12193;42.642;23.384;2023-02-11T13:24:42;95595.59;;;5.66;37.63
6425;BME280;12193;42.642;23.384;2023-02-11T13:27:23;95591.63;;;5.71;37.97
6425;BME280;12193;42.642;23.384;2023-02-11T13:30:19;95590.22;;;5.59;38.07
6425;BME280;12193;42.642;23.384;2023-02-11T13:33:03;95588.56;;;5.95;37.76
6425;BME280;12193;42.642;23.384;2023-02-11T13:35:35;95583.44;;;6.03;38.15
6425;BME280;12193;42.642;23.384;2023-02-11T13:38:17;95581.47;;;6.14;39.00
6425;BME280;12193;42.642;23.384;2023-02-11T13:40:59;95582.28;;;6.15;38.11
6425;BME280;12193;42.642;23.384;2023-02-11T13:43:30;95585.06;;;6.04;37.43
6425;BME280;12193;42.642;23.384;2023-02-11T13:46:02;95579.97;;;5.94;37.54
6425;BME280;12193;42.642;23.384;2023-02-11T13:48:35;95581.81;;;6.02;37.63
6425;BME280;12193;42.642;23.384;2023-02-11T13:51:06;95565.09;;;6.06;37.87
6425;BME280;12193;42.642;23.384;2023-02-11T13:53:48;95577.72;;;5.64;37.64
6425;BME280;12193;42.642;23.384;2023-02-11T13:56:28;95567.31;;;5.83;37.58
6425;BME280;12193;42.642;23.384;2023-02-11T13:58:59;95564.00;;;5.64;37.82
6425;BME280;12193;42.642;23.384;2023-02-11T14:02:01;95561.47;;;5.81;38.11
6425;BME280;12193;42.642;23.384;2023-02-11T14:05:11;95546.75;;;6.09;39.10
6425;BME280;12193;42.642;23.384;2023-02-11T14:11:47;95546.16;;;5.97;36.33
6425;BME280;12193;42.642;23.384;2023-02-11T14:14:19;95549.53;;;5.53;36.28
6425;BME280;12193;42.642;23.384;2023-02-11T14:19:52;95556.31;;;5.81;35.78
6425;BME280;12193;42.642;23.384;2023-02-11T14:22:24;95550.25;;;5.73;36.05
6425;BME280;12193;42.642;23.384;2023-02-11T14:24:56;95553.06;;;5.79;36.12
6425;BME280;12193;42.642;23.384;2023-02-11T14:27:40;95553.44;;;5.84;36.11
6425;BME280;12193;42.642;23.384;2023-02-11T14:33:23;95542.81;;;5.43;35.98
6425;BME280;12193;42.642;23.384;2023-02-11T14:36:04;95542.69;;;5.44;35.83
6425;BME280;12193;42.642;23.384;2023-02-11T14:38:46;95542.06;;;5.60;37.39
6425;BME280;12193;42.642;23.384;2023-02-11T14:41:19;95547.06;;;5.61;36.40
6425;BME280;12193;42.642;23.384;2023-02-11T14:43:55;95547.28;;;5.41;37.38
6425;BME280;12193;42.642;23.384;2023-02-11T14:46:27;95546.88;;;5.18;37.78
6425;BME280;12193;42.642;23.384;2023-02-11T14:49:00;95540.22;;;5.25;38.25
6425;BME280;12193;42.642;23.384;2023-02-11T14:51:32;95545.16;;;5.36;38.18
6425;BME280;12193;42.642;23.384;2023-02-11T14:54:09;95553.44;;;5.40;39.14
6425;BME280;12193;42.642;23.384;2023-02-11T14:56:42;95546.44;;;5.23;38.75
6425;BME280;12193;42.642;23.384;2023-02-11T14:59:17;95546.69;;;5.03;39.42
6425;BME280;12193;42.642;23.384;2023-02-11T15:01:49;95544.31;;;4.82;40.34
6425;BME280;12193;42.642;23.384;2023-02-11T15:04:25;95534.88;;;4.64;41.00
6425;BME280;12193;42.642;23.384;2023-02-11T15:06:55;95538.44;;;4.53;41.11
6425;BME280;12193;42.642;23.384;2023-02-11T15:09:31;95535.19;;;4.51;41.43
6425;BME280;12193;42.642;23.384;2023-02-11T15:12:01;95537.81;;;4.23;42.37
6425;BME280;12193;42.642;23.384;2023-02-11T15:14:34;95530.22;;;4.03;43.00
6425;BME280;12193;42.642;23.384;2023-02-11T15:17:06;95538.78;;;4.03;42.91
6425;BME280;12193;42.642;23.384;2023-02-11T15:19:39;95530.25;;;3.93;42.86
6425;BME280;12193;42.642;23.384;2023-02-11T15:22:16;95530.66;;;3.79;43.03
6425;BME280;12193;42.642;23.384;2023-02-11T15:24:58;95517.94;;;3.87;43.83
6425;BME280;12193;42.642;23.384;2023-02-11T15:27:37;95511.72;;;3.80;43.33
6425;BME280;12193;42.642;23.384;2023-02-11T15:30:29;95509.81;;;3.63;44.15
6425;BME280;12193;42.642;23.384;2023-02-11T15:33:00;95517.38;;;3.46;44.02
6425;BME280;12193;42.642;23.384;2023-02-11T15:35:33;95516.81;;;3.42;44.55
6425;BME280;12193;42.642;23.384;2023-02-11T15:38:03;95517.38;;;3.55;44.59
6425;BME280;12193;42.642;23.384;2023-02-11T15:40:34;95506.28;;;3.36;45.01
6425;BME280;12193;42.642;23.384;2023-02-11T15:43:05;95515.16;;;3.22;45.85
6425;BME280;12193;42.642;23.384;2023-02-11T15:45:40;95516.78;;;3.23;46.18
6425;BME280;12193;42.642;23.384;2023-02-11T15:48:12;95520.38;;;3.11;46.75
6425;BME280;12193;42.642;23.384;2023-02-11T15:50:49;95521.06;;;3.13;47.00
6425;BME280;12193;42.642;23.384;2023-02-11T15:53:22;95522.41;;;3.08;47.10
6425;BME280;12193;42.642;23.384;2023-02-11T15:56:01;95517.69;;;3.04;47.71
6425;BME280;12193;42.642;23.384;2023-02-11T15:58:35;95517.69;;;3.04;47.45
6425;BME280;12193;42.642;23.384;2023-02-11T16:01:09;95515.34;;;2.91;48.24
6425;BME280;12193;42.642;23.384;2023-02-11T16:03:40;95519.66;;;2.91;48.22
6425;BME280;12193;42.642;23.384;2023-02-11T16:06:18;95523.69;;;2.84;49.13
6425;BME280;12193;42.642;23.384;2023-02-11T16:08:59;95528.84;;;2.63;49.40
6425;BME280;12193;42.642;23.384;2023-02-11T16:11:31;95526.00;;;2.57;50.30
6425;BME280;12193;42.642;23.384;2023-02-11T16:14:01;95519.50;;;2.53;50.08
6425;BME280;12193;42.642;23.384;2023-02-11T16:16:52;95517.84;;;2.72;50.13
6425;BME280;12193;42.642;23.384;2023-02-11T16:19:23;95520.44;;;2.82;50.08
6425;BME280;12193;42.642;23.384;2023-02-11T16:21:55;95521.88;;;2.75;51.80
6425;BME280;12193;42.642;23.384;2023-02-11T16:24:27;95521.50;;;2.49;51.85
6425;BME280;12193;42.642;23.384;2023-02-11T16:26:59;95515.25;;;2.42;52.04
6425;BME280;12193;42.642;23.384;2023-02-11T16:29:30;95524.50;;;2.34;52.51
6425;BME280;12193;42.642;23.384;2023-02-11T16:32:15;95522.59;;;2.26;52.68
6425;BME280;12193;42.642;23.384;2023-02-11T16:34:45;95523.53;;;2.25;53.44
6425;BME280;12193;42.642;23.384;2023-02-11T16:37:15;95527.28;;;2.21;53.93
6425;BME280;12193;42.642;23.384;2023-02-11T16:39:44;95525.03;;;2.07;54.54
6425;BME280;12193;42.642;23.384;2023-02-11T16:42:13;95516.59;;;1.96;55.26
6425;BME280;12193;42.642;23.384;2023-02-11T16:44:42;95528.34;;;1.99;55.33
6425;BME280;12193;42.642;23.384;2023-02-11T16:47:19;95514.78;;;2.07;54.67
6425;BME280;12193;42.642;23.384;2023-02-11T16:49:51;95526.78;;;1.87;54.22
6425;BME280;12193;42.642;23.384;2023-02-11T16:52:21;95526.69;;;1.98;54.52
6425;BME280;12193;42.642;23.384;2023-02-11T16:54:51;95527.78;;;1.95;54.44
6425;BME280;12193;42.642;23.384;2023-02-11T16:57:22;95516.81;;;1.93;54.54